createdAt,value
2018-07-15T00:04:00.187Z,71.60
2018-07-15T00:08:03.870Z,72.00
2018-07-15T00:12:07.621Z,74.10
2018-07-15T00:16:15.338Z,70.80
2018-07-15T00:20:24.396Z,70.40
2018-07-15T00:24:28.087Z,69.90
2018-07-15T00:28:36.242Z,70.90
2018-07-15T00:32:43.877Z,71.60
2018-07-15T00:36:51.975Z,72.60
2018-07-15T00:40:55.564Z,73.50
2018-07-15T00:44:59.083Z,74.10
2018-07-15T00:49:02.671Z,73.00
2018-07-15T00:53:06.333Z,73.00
2018-07-15T00:57:09.921Z,72.40
2018-07-15T01:01:13.424Z,72.80
2018-07-15T01:05:17.290Z,72.70
2018-07-15T01:09:20.832Z,71.60
2018-07-15T01:13:25.098Z,71.20
2018-07-15T01:17:54.426Z,72.60
2018-07-15T01:21:58.261Z,71.30
2018-07-15T01:26:01.961Z,72.40
2018-07-15T01:30:05.578Z,73.90
2018-07-15T01:34:09.150Z,74.20
2018-07-15T01:42:17.108Z,73.10
2018-07-15T01:46:20.683Z,72.50
2018-07-15T01:50:24.208Z,73.50
2018-07-15T01:54:28.185Z,73.50
2018-07-15T01:58:31.769Z,74.10
2018-07-15T02:02:36.477Z,74.70
2018-07-15T02:06:40.058Z,74.10
2018-07-15T02:10:43.686Z,74.50
2018-07-15T02:14:47.315Z,75.40
2018-07-15T02:18:50.969Z,74.60
2018-07-15T02:22:54.522Z,75.40
2018-07-15T02:26:58.437Z,75.60
2018-07-15T02:31:02.226Z,75.70
2018-07-15T02:35:06.938Z,75.60
2018-07-15T02:39:11.141Z,74.20
2018-07-15T02:43:14.849Z,74.30
2018-07-15T02:47:18.479Z,74.30
2018-07-15T02:51:22.042Z,74.90
2018-07-15T02:55:25.614Z,76.00
2018-07-15T02:59:29.398Z,73.80
2018-07-15T03:03:32.935Z,74.30
2018-07-15T03:07:36.586Z,75.10
2018-07-15T03:11:40.296Z,76.00
2018-07-15T03:15:44.158Z,74.70
2018-07-15T03:19:47.695Z,73.70
2018-07-15T03:23:51.222Z,74.10
2018-07-15T03:27:54.762Z,75.90
2018-07-15T03:31:59.416Z,76.60
2018-07-15T03:36:07.067Z,77.50
2018-07-15T03:40:10.654Z,77.40
2018-07-15T03:44:14.182Z,78.60
2018-07-15T03:48:17.694Z,77.80
2018-07-15T03:52:21.190Z,75.40
2018-07-15T03:56:24.940Z,76.20
2018-07-15T04:00:28.573Z,76.60
2018-07-15T04:04:32.149Z,77.30
2018-07-15T04:08:35.750Z,77.40
2018-07-15T04:12:39.379Z,77.10
2018-07-15T04:16:43.041Z,76.60
2018-07-15T04:20:46.613Z,77.00
2018-07-15T04:24:54.506Z,77.50
2018-07-15T04:28:58.174Z,77.50
2018-07-15T04:33:01.707Z,77.90
2018-07-15T04:41:08.619Z,78.20
2018-07-15T04:45:12.195Z,76.90
2018-07-15T04:49:15.718Z,77.00
2018-07-15T04:53:19.254Z,77.60
2018-07-15T04:57:22.910Z,78.20
2018-07-15T05:01:26.590Z,77.90
2018-07-15T05:05:30.097Z,77.80
2018-07-15T05:09:33.649Z,77.70
2018-07-15T05:13:37.164Z,76.80
2018-07-15T05:17:40.745Z,77.00
2018-07-15T05:21:44.294Z,77.70
2018-07-15T05:25:47.857Z,77.70
2018-07-15T05:29:51.395Z,78.00
2018-07-15T05:33:54.971Z,78.00
2018-07-15T05:37:59.519Z,78.20
2018-07-15T05:42:03.150Z,77.60
2018-07-15T05:46:06.671Z,77.40
2018-07-15T05:50:10.427Z,77.20
2018-07-15T05:54:13.974Z,76.10
2018-07-15T05:58:17.664Z,76.00
2018-07-15T06:02:21.203Z,75.10
2018-07-15T06:06:25.882Z,75.10
2018-07-15T06:10:29.378Z,74.40
2018-07-15T06:14:32.982Z,74.00
2018-07-15T06:18:36.628Z,73.10
2018-07-15T06:22:40.258Z,71.50
2018-07-15T06:26:43.847Z,70.60
2018-07-15T06:30:47.387Z,67.50
2018-07-15T06:34:50.948Z,66.90
2018-07-15T06:38:54.504Z,65.90
2018-07-15T06:42:58.122Z,61.50
2018-07-15T06:47:01.706Z,60.80
2018-07-15T06:51:05.270Z,58.60
2018-07-15T06:55:09.249Z,57.80
2018-07-15T06:59:13.074Z,56.70
2018-07-15T07:03:16.624Z,55.10
2018-07-15T07:07:20.450Z,51.20
2018-07-15T07:11:24.831Z,50.60
2018-07-15T07:15:28.389Z,51.70
2018-07-15T07:19:32.036Z,48.00
2018-07-15T07:23:37.740Z,48.80
2018-07-15T07:27:43.162Z,49.30
2018-07-15T07:35:50.321Z,49.30
2018-07-15T07:39:57.102Z,47.40
2018-07-15T07:44:00.784Z,44.90
2018-07-15T07:48:04.413Z,44.60
2018-07-15T07:52:08.933Z,45.50
2018-07-15T07:56:12.739Z,45.80
2018-07-15T08:00:16.690Z,46.10
2018-07-15T08:04:20.225Z,45.50
2018-07-15T08:08:33.203Z,45.40
2018-07-15T08:12:37.786Z,45.10
2018-07-15T08:16:42.796Z,44.30
2018-07-15T08:20:46.438Z,45.00
2018-07-15T08:24:50.086Z,43.20
2018-07-15T08:28:53.634Z,42.40
2018-07-15T08:37:08.014Z,44.60
2018-07-15T08:41:12.846Z,42.00
2018-07-15T08:45:17.486Z,42.50
2018-07-15T08:49:25.800Z,42.30
2018-07-15T08:53:29.346Z,43.20
2018-07-15T08:57:33.367Z,41.10
2018-07-15T09:01:37.521Z,41.50
2018-07-15T09:05:41.160Z,42.20
2018-07-15T09:09:45.708Z,41.80
2018-07-15T09:13:49.466Z,43.00
2018-07-15T09:17:53.144Z,39.20
2018-07-15T09:21:56.728Z,38.70
2018-07-15T09:26:00.351Z,40.10
2018-07-15T09:30:03.982Z,39.70
2018-07-15T09:34:07.570Z,40.30
2018-07-15T09:38:11.117Z,41.10
2018-07-15T09:42:14.729Z,39.80
2018-07-15T09:46:25.264Z,38.80
2018-07-15T09:50:28.822Z,39.10
2018-07-15T09:54:39.535Z,37.00
2018-07-15T09:58:45.264Z,37.40
2018-07-15T10:02:49.000Z,34.80
2018-07-15T10:06:52.562Z,36.20
2018-07-15T10:10:56.141Z,36.20
2018-07-15T10:14:59.707Z,36.00
2018-07-15T10:19:08.588Z,36.50
2018-07-15T10:23:12.089Z,34.00
2018-07-15T10:27:15.826Z,31.20
2018-07-15T10:31:19.477Z,32.20
2018-07-15T10:35:23.136Z,33.50
2018-07-15T10:39:26.688Z,36.70
2018-07-15T10:43:30.835Z,34.20
2018-07-15T10:47:34.435Z,29.90
2018-07-15T10:51:38.082Z,30.60
2018-07-15T10:55:41.673Z,36.40
2018-07-15T10:59:45.254Z,34.50
2018-07-15T11:03:49.029Z,35.50
2018-07-15T11:07:52.708Z,32.30
2018-07-15T11:11:57.293Z,34.30
2018-07-15T11:16:00.987Z,31.20
2018-07-15T11:20:04.613Z,29.50
2018-07-15T11:24:09.381Z,31.50
2018-07-15T11:28:12.947Z,33.10
2018-07-15T11:36:20.985Z,30.00
2018-07-15T11:40:24.819Z,30.20
2018-07-15T11:44:29.111Z,30.70
2018-07-15T11:48:33.134Z,37.30
2018-07-15T11:52:42.321Z,33.50
2018-07-15T11:56:57.987Z,40.40
2018-07-15T12:01:01.582Z,33.30
2018-07-15T12:05:06.489Z,32.70
2018-07-15T12:09:10.134Z,34.60
2018-07-15T12:13:13.878Z,29.80
2018-07-15T12:17:17.446Z,34.70
2018-07-15T12:21:21.092Z,30.20
2018-07-15T12:25:24.705Z,35.10
2018-07-15T12:29:28.238Z,38.90
2018-07-15T12:33:31.734Z,35.10
2018-07-15T12:37:35.368Z,32.10
2018-07-15T12:41:39.021Z,31.90
2018-07-15T12:45:42.632Z,39.00
2018-07-15T12:49:46.225Z,34.10
2018-07-15T12:53:49.795Z,38.30
2018-07-15T12:57:56.938Z,31.10
2018-07-15T13:02:00.691Z,38.30
2018-07-15T13:06:04.404Z,38.60
2018-07-15T13:10:14.064Z,40.10
2018-07-15T13:14:18.634Z,36.90
2018-07-15T13:18:22.292Z,39.00
2018-07-15T13:22:25.899Z,33.00
2018-07-15T13:26:29.623Z,39.90
2018-07-15T13:30:35.357Z,38.10
2018-07-15T13:34:39.063Z,39.70
2018-07-15T13:38:43.674Z,34.80
2018-07-15T13:42:47.356Z,35.80
2018-07-15T13:46:55.659Z,35.50
2018-07-15T13:50:59.413Z,41.20
2018-07-15T13:55:04.003Z,36.70
2018-07-15T13:59:07.560Z,41.70
2018-07-15T14:03:11.080Z,42.10
2018-07-15T14:07:14.866Z,40.70
2018-07-15T14:11:24.605Z,38.40
2018-07-15T14:15:31.709Z,40.70
2018-07-15T14:23:45.419Z,40.80
2018-07-15T14:27:49.018Z,40.60
2018-07-15T14:31:52.975Z,42.00
2018-07-15T14:35:56.555Z,39.40
2018-07-15T14:40:02.591Z,34.10
2018-07-15T14:44:06.436Z,35.20
2018-07-15T14:48:10.147Z,37.20
2018-07-15T14:52:20.850Z,29.90
2018-07-15T14:56:24.623Z,29.70
2018-07-15T15:00:28.245Z,35.80
2018-07-15T15:04:31.931Z,42.60
2018-07-15T15:08:36.515Z,35.30
2018-07-15T15:12:41.139Z,34.50
2018-07-15T15:16:48.850Z,41.60
2018-07-15T15:20:52.447Z,38.60
2018-07-15T15:24:56.170Z,37.30
2018-07-15T15:33:09.990Z,39.60
2018-07-15T15:37:16.174Z,36.60
2018-07-15T15:41:21.324Z,40.70
2018-07-15T15:45:36.939Z,34.00
2018-07-15T15:49:41.755Z,38.70
2018-07-15T15:53:46.519Z,35.40
2018-07-15T15:57:50.020Z,34.30
2018-07-15T16:01:53.751Z,34.70
2018-07-15T16:05:58.578Z,34.40
2018-07-15T16:10:02.334Z,35.30
2018-07-15T16:14:19.305Z,40.00
2018-07-15T16:18:22.873Z,42.10
2018-07-15T16:22:26.422Z,33.60
2018-07-15T16:26:30.031Z,35.10
2018-07-15T16:30:33.582Z,33.20
2018-07-15T16:34:37.218Z,40.60
2018-07-15T16:38:40.710Z,41.20
2018-07-15T16:42:48.381Z,38.40
2018-07-15T16:46:52.438Z,34.90
2018-07-15T16:50:56.091Z,40.30
2018-07-15T16:55:04.731Z,38.20
2018-07-15T16:59:08.502Z,42.30
2018-07-15T17:03:12.418Z,39.30
2018-07-15T17:07:20.085Z,42.60
2018-07-15T17:11:23.854Z,42.50
2018-07-15T17:15:33.215Z,41.10
2018-07-15T17:19:36.978Z,37.70
2018-07-15T17:23:40.988Z,39.10
2018-07-15T17:27:47.001Z,40.60
2018-07-15T17:31:51.510Z,38.70
2018-07-15T17:35:55.031Z,38.10
2018-07-15T17:40:00.171Z,37.90
2018-07-15T17:44:05.760Z,38.00
2018-07-15T17:48:09.305Z,38.30
2018-07-15T17:52:13.954Z,38.20
2018-07-15T17:56:18.690Z,41.30
2018-07-15T18:00:23.304Z,40.90
2018-07-15T18:04:28.029Z,41.30
2018-07-15T18:08:31.570Z,41.80
2018-07-15T18:12:37.402Z,41.80
2018-07-15T18:16:41.938Z,42.30
2018-07-15T18:20:45.899Z,42.70
2018-07-15T18:24:49.481Z,44.40
2018-07-15T18:28:53.381Z,45.40
2018-07-15T18:32:57.155Z,46.30
2018-07-15T18:37:00.795Z,47.30
2018-07-15T18:41:05.413Z,47.30
2018-07-15T18:45:09.143Z,47.30
2018-07-15T18:49:12.802Z,48.10
2018-07-15T18:53:16.374Z,48.10
2018-07-15T18:57:19.964Z,49.10
2018-07-15T19:01:23.827Z,48.20
2018-07-15T19:05:32.818Z,48.70
2018-07-15T19:09:36.666Z,48.40
2018-07-15T19:13:40.351Z,48.70
2018-07-15T19:17:45.152Z,48.60
2018-07-15T19:21:53.222Z,48.90
2018-07-15T19:25:57.185Z,49.30
2018-07-15T19:30:02.854Z,49.00
2018-07-15T19:34:07.608Z,49.20
2018-07-15T19:38:11.221Z,49.40
2018-07-15T19:42:14.781Z,49.50
2018-07-15T19:46:19.434Z,50.20
2018-07-15T19:50:23.207Z,51.80
2018-07-15T19:54:26.817Z,50.80
2018-07-15T19:58:30.373Z,50.80
2018-07-15T20:02:33.999Z,52.20
2018-07-15T20:06:38.124Z,51.80
2018-07-15T20:10:41.739Z,52.40
2018-07-15T20:14:45.417Z,52.50
2018-07-15T20:18:48.989Z,54.30
2018-07-15T20:22:52.536Z,52.40
2018-07-15T20:26:56.070Z,55.50
2018-07-15T20:30:59.626Z,53.20
2018-07-15T20:35:03.486Z,53.00
2018-07-15T20:39:10.923Z,52.80
2018-07-15T20:43:14.544Z,54.70
2018-07-15T20:47:20.102Z,65.90
2018-07-15T20:51:24.693Z,73.40
2018-07-15T20:55:29.042Z,73.80
2018-07-15T20:59:32.683Z,76.10
2018-07-15T21:03:36.342Z,76.90
2018-07-15T21:07:39.898Z,73.70
2018-07-15T21:11:43.462Z,70.10
2018-07-15T21:15:47.164Z,69.90
2018-07-15T21:19:50.875Z,72.50
2018-07-15T21:23:54.562Z,72.90
2018-07-15T21:27:58.178Z,73.30
2018-07-15T21:32:01.712Z,74.70
2018-07-15T21:36:05.417Z,67.00
2018-07-15T21:40:21.598Z,66.10
2018-07-15T21:44:25.187Z,68.40
2018-07-15T21:48:29.006Z,72.90
2018-07-15T21:52:34.982Z,72.80
2018-07-15T21:57:02.051Z,73.90
2018-07-15T22:01:50.469Z,74.20
2018-07-15T22:05:54.640Z,75.20
2018-07-15T22:10:12.335Z,75.30
2018-07-15T22:14:15.959Z,73.00
2018-07-15T22:18:21.626Z,71.90
2018-07-15T22:22:25.352Z,73.90
2018-07-15T22:26:28.955Z,73.90
2018-07-15T22:30:32.636Z,69.70
2018-07-15T22:34:37.523Z,69.20
2018-07-15T22:38:45.474Z,72.00
2018-07-15T22:42:49.393Z,72.40
2018-07-15T22:46:53.975Z,72.80
2018-07-15T22:50:58.074Z,69.00
2018-07-15T22:55:19.723Z,66.90
2018-07-15T22:59:27.154Z,65.60
2018-07-15T23:03:45.667Z,68.40
2018-07-15T23:07:50.248Z,69.50
2018-07-15T23:11:53.854Z,71.00
2018-07-15T23:15:57.418Z,70.10
2018-07-15T23:20:00.990Z,71.40
2018-07-15T23:24:08.898Z,69.10
2018-07-15T23:28:13.590Z,69.60
2018-07-15T23:32:17.151Z,68.10
2018-07-15T23:36:21.082Z,69.50
2018-07-15T23:40:30.730Z,70.40
2018-07-15T23:44:34.259Z,71.00
2018-07-15T23:48:37.919Z,71.20
2018-07-15T23:52:41.465Z,70.40
2018-07-15T23:56:44.982Z,71.60
